Charlotte, NC (28236)

4:22 PM EDT on August 25, 2016 (GMT -0400)
Northwoods | | Change Station

Elev 653 ft 35.31 °N, 80.97 °W | Updated 4 minutes ago

Scattered Clouds
Scattered Clouds
91.4 °F
Feels Like 98 °F
N
0.0
Wind Variable Wind from SSW

Today
High -- | Low -- °F
--% Chance of Precip.
Yesterday
High -- | Low -- °F
Precip. -- in
Pressure 30.08 in
Visibility 10.0 miles
Clouds Scattered Clouds 7000 ft
Scattered Clouds 25000 ft
Heat Index 98 °F
Dew Point 71 °F
Humidity 51%
Rainfall 0.00 in
Snow Depth Not available.
6:51 AM 7:59 PM
Last Quarter, 42% visible
METAR KCLT 251952Z 00000KT 10SM SCT070 SCT250 34/17 A3011 RMK AO2 SLP186 T03440172
Pressure 30.08 in
Visibility 10.0 miles
Clouds Scattered Clouds 7000 ft
Scattered Clouds 25000 ft
Heat Index 98 °F
Dew Point 71 °F
Humidity 51%
Rainfall 0.00 in
Snow Depth Not available.
6:51 AM 7:59 PM
Last Quarter, 42% visible
METAR KCLT 251952Z 00000KT 10SM SCT070 SCT250 34/17 A3011 RMK AO2 SLP186 T03440172
A tropical disturbance pushing toward the Bahamas, is expected to develop into a tropical depression or storm, and will likely target Florida and the Gulf Coast this weekend into next week.

Right now, the disturbance remains a broad area of low pressure pushing through the Dominican Republic and Haiti, headed toward the southeast Bahamas. Rainfall totals over 3 inches (with locally higher amounts) are expected in HispaƱiola, particularly over elevated terrain.

10-Day Weather Forecast

Almanac

Astronomy

Aug. 25, 2016 Rise Set
Actual Time
Civil Twilight
Nautical Twilight
Astronomical Twilight
Moon
Length of Visible Light
Length of Day
Tomorrow will be .
, % of the Moon is Illuminated

Today's Extremes

State Highs State Lows

Community

WunderPhotos

Upload Photos

1,934,921 photos uploaded!

WunderBlog® & News

Nearby

Air Quality

  Air Quality AQ Index Pollutant
Not available.

Snow Depth

Station Depth Elevation

Earthquake Activity

City Distance Mag. Time & Date
Minimum magnitude displayed is 2.5.

Coastal Water Temperatures

Place Temperature

Stations

Nearby Weather Stations

Station Location Temp. Windchill Dew Point Humidity Wind Precip. Elev Updated Type
                   

Watches & Warnings

There are currently no watches in effect.